Airfield :
LOGIN :

Register | Disclaimer

   EN    FR    IT 

 










Legend :    VFR   Marginal VFR   IFR   Intensive IFR   Very Intensive IFR
Visi :
Ceiling :
>= 8 km
>= 3000ft
5 to 8 km
1000 to 3000 ft
1500m to 5 km
500 to 1000 ft
800 to 1500m
200 to 500 ft
< 800m
< 200 ft
Symbols :   Thunderstorms  Fog  Heavy snow  Heavy precipitations  Wind > 20 kt
SIGMETs :     Misc.  Thunderstorms  Icing  Turbulence  Mountain Waves  Volcanic Ashes







- Airport Elevation : 215 ft
- IATA code : TAR


LIBG - Grottaglie Arpt. Taranto

CURRENT METAR :
  • 160600Z 00000KT CAVOK 28/15 Q1011

TAF COR TAF LIBG
Valid from the 16 at 06:00 until the 16 at 15:00 UTC


160533Z 1606/1615 VRB06KT CAVOK
BECMG 1608/1610 18010KT
No reported NOTAMs for that airfield.
1 SIGMET reported for the Brindisi FIR (LIBB) :
 
Severe turbulence
LIBB SIGMET 6 VALID 160400/160800 LIIB
LIBB BRINDISI FIR SEV TURB FCST N OF LINE N4117 E01420 - N4137 E01802 ABV FL260 STNR NC=



MET'MAP, your aeronautical weather chart ! - Copyright ORBIFLY December 2007 - Disclaimer

ORBIFLY MET'MAP TEAM :

Programming & Development : Alexandra Zaïnal
Concept & Development : Baudouin d'Aumeries
Co-Development & Prog : Marc-Olivier Méhu
Technical & hardware support : Manuel Goepfert

Contact : metmap@orbifly.com




SOURCES & CREDITS :

   NOAA